メインページ
METAR-TAF:

METAR-TAF

空港 :

Rutland Southern Vermont Regional Airport

ラトランド, バーモント州, アメリカ合衆国

緯度: 43-32N, 経度: 072-57W, 海抜: 240m

現時点の気象観測

当レポートは43分前の03:56(UTC)に作成
無風
気温 6°C
湿度 100%
気圧 1014 hPa
視程: 16.1km
高度300ftの雲はほとんどない
高度2600ftの曇り

METAR: KRUT 040356Z AUTO 00000KT 10SM FEW003 OVC026 06/06 A2995 RMK AO2 RAB22E55 SLP143 P0000 T00610061 $

時間: 00:39 (04:39 UTC)

予報

当レポートは1時間57分前の02:42(UTC)に作成
予報は04日の 03時(UTC)から 04日の 24時(UTC)まで有効
の風 5kt
視程: 10km
高度500ftの雲は散在している
高度2500ftの曇り
近辺でにわか雨
04日の 03時(UTC)から 04日の 06時(UTC)まで一時的に
視程: 8.0km
高度500ftの曇り
小霧雨, 靄
04日の 0600時(UTC)から
の風 10kt
視程: 9.7km
高度500ftの曇り
小霧雨, 靄
04日の 1200時(UTC)から
の風 kt
視程: 10km
高度2500ftの千切れ雲あり
04日の 1600時(UTC)から
変向風 3kt
視程: 10km
高度2500ftの雲は散在している

TAF: KRUT 040242Z 0403/0424 36005KT P6SM VCSH SCT005 OVC025 TEMPO 0403/0406 5SM -DZ BR OVC005 FM040600 01010KT 6SM -DZ BR OVC005 FM041200 00000KT P6SM BKN025 FM041600 VRB03KT P6SM SCT025

4,000以上の空港の気象観測と天気予報(METAR報とTAF報)

利用可能な観測所は地図上に黄色い丸と赤い丸で示す。

丸の上にカーソルを重ねると観測所名を参照できる。

次にクリックすると気象観測と天気予報を参照できる。

マップの切り替え:黒色「×」印の緑ボタンをクリックして拡大、「-」印の緑ボタンをクリックして縮小、緑色の三角印をクリックして隣りの地図に切り替え


METAR-TAF: